Akron, Colorado
Current Conditions -  °F | °C
As of 6:53 AM on Wednesday 22 Oct 2014 (Local Time) from KAKO Reporting Station
Broken Clouds Broken Clouds  
Wind Chill: 51°   Ceiling: 11000
Heat Index: 51°   Visibility: 10mi
Dew Point: 45°   Wind: 9mph
Humidity: 80%   Direction: 320°NW
Pressure: 30.02"   Gusts: NA
Location:  40.16°N, 103.21°W
Report Text: KAKO 221253Z AUTO 32008KT 10SM BKN110 11/07 A3002 RMK AO2 SLP132 T01060072
Loading
Personal Weather Stations






























Interactive Weather Map
Tropical Storm Tracking
New forecast layout! Learn more

10-Day Weather Forecast

Advertisements
Track Severe Weather on mobile